Time;durP1;ratioP1;P1;durP2;ratioP2;P2;SDS_P1;SDS_P2;PMS_P1;PMS_P2;Temp;Humidity;BMP_temperature;BMP_pressure;BME280_temperature;BME280_humidity;BME280_pressure;Samples;Min_cycle;Max_cycle;Signal;HPM_P1;HPM_P2
2022/06/10 00:00:30;;;;;;;9.13;4.50;;;14.50;99.90;;;;;;5030792;28;20052;-86
2022/06/10 00:02:56;;;;;;;8.32;4.78;;;14.50;99.90;;;;;;5013389;28;20056;-86
2022/06/10 00:05:25;;;;;;;7.70;4.88;;;14.50;99.90;;;;;;5029593;28;20025;-86
2022/06/10 00:07:52;;;;;;;6.82;4.03;;;14.50;99.90;;;;;;5030815;28;20045;-86
2022/06/10 00:10:22;;;;;;;6.30;4.63;;;14.50;99.90;;;;;;5029958;28;20037;-86
2022/06/10 00:12:48;;;;;;;8.88;4.65;;;14.50;99.90;;;;;;5030908;28;20025;-86
2022/06/10 00:15:15;;;;;;;8.63;4.68;;;14.50;99.90;;;;;;5030761;28;20030;-86
2022/06/10 00:17:41;;;;;;;9.05;4.70;;;14.50;99.90;;;;;;5030544;28;20021;-86
2022/06/10 00:20:09;;;;;;;6.90;4.68;;;14.50;99.90;;;;;;5029217;28;20037;-85
2022/06/10 00:22:35;;;;;;;12.10;5.03;;;14.50;99.90;;;;;;5030802;28;20112;-85
2022/06/10 00:25:01;;;;;;;9.00;5.03;;;14.40;99.90;;;;;;5029804;28;20094;-86
2022/06/10 00:27:27;;;;;;;6.68;4.53;;;14.40;99.90;;;;;;5029227;28;20033;-86
2022/06/10 00:29:53;;;;;;;9.65;5.20;;;14.40;99.90;;;;;;5028797;28;20112;-86
2022/06/10 00:32:19;;;;;;;9.20;4.53;;;14.40;99.90;;;;;;5029138;28;20033;-86
2022/06/10 00:34:45;;;;;;;8.00;3.90;;;14.40;99.90;;;;;;5030278;28;20033;-86
2022/06/10 00:37:11;;;;;;;8.15;4.57;;;14.40;99.90;;;;;;5030241;28;20030;-86
2022/06/10 00:39:37;;;;;;;8.40;5.13;;;14.40;99.90;;;;;;5029386;28;20048;-86
2022/06/10 00:42:05;;;;;;;8.68;5.00;;;14.50;99.90;;;;;;5030336;28;20087;-85
2022/06/10 00:44:33;;;;;;;7.32;4.45;;;14.40;99.90;;;;;;5030216;28;20040;-85
2022/06/10 00:47:01;;;;;;;8.48;4.75;;;14.40;99.90;;;;;;5028459;28;20402;-86
2022/06/10 00:49:30;;;;;;;6.78;4.75;;;14.50;99.90;;;;;;5028402;28;20562;-86
2022/06/10 00:51:56;;;;;;;6.90;4.50;;;14.50;99.90;;;;;;5029910;28;20095;-86
2022/06/10 00:54:39;;;;;;;9.43;4.70;;;14.50;99.90;;;;;;5029287;28;20436;-85
2022/06/10 00:57:19;;;;;;;9.82;4.88;;;14.50;99.90;;;;;;5030106;28;20028;-86
2022/06/10 01:00:11;;;;;;;12.35;5.20;;;14.60;99.90;;;;;;5011822;28;20116;-85
2022/06/10 01:02:37;;;;;;;8.77;5.05;;;14.70;99.90;;;;;;5027958;28;20486;-85
2022/06/10 01:05:29;;;;;;;6.70;4.70;;;14.70;99.90;;;;;;5012003;28;20454;-85
2022/06/10 01:08:07;;;;;;;10.60;5.10;;;14.70;99.90;;;;;;5027054;28;20033;-86
2022/06/10 01:10:51;;;;;;;10.13;5.38;;;14.70;99.90;;;;;;5029118;28;20033;-85
2022/06/10 01:13:48;;;;;;;11.38;5.15;;;14.70;99.90;;;;;;5031193;28;20116;-85
2022/06/10 01:16:34;;;;;;;10.45;5.00;;;14.70;99.90;;;;;;5033786;28;20029;-85
2022/06/10 01:19:29;;;;;;;7.65;4.70;;;14.60;99.90;;;;;;5033691;28;20025;-86
2022/06/10 01:22:19;;;;;;;13.60;5.80;;;14.50;99.90;;;;;;5034000;28;20048;-85
2022/06/10 01:25:06;;;;;;;12.32;5.05;;;14.50;99.90;;;;;;5033215;28;20059;-86
2022/06/10 01:27:56;;;;;;;7.63;4.85;;;14.40;99.90;;;;;;5032384;28;20041;-86
2022/06/10 01:30:51;;;;;;;11.02;4.75;;;14.40;99.90;;;;;;5032140;28;20113;-86
2022/06/10 01:33:48;;;;;;;10.40;5.15;;;14.40;99.90;;;;;;5032960;28;20025;-85
2022/06/10 01:36:28;;;;;;;12.02;5.70;;;14.30;99.90;;;;;;5032379;28;20026;-85
2022/06/10 01:39:15;;;;;;;7.88;5.32;;;14.30;99.90;;;;;;5032795;28;20049;-85
2022/06/10 01:42:27;;;;;;;10.93;5.20;;;14.20;99.90;;;;;;5033765;28;20030;-86
2022/06/10 01:45:17;;;;;;;9.13;5.53;;;14.20;99.90;;;;;;5005852;28;20437;-85
2022/06/10 01:47:46;;;;;;;11.32;5.05;;;14.20;99.90;;;;;;5033703;28;20041;-85
2022/06/10 01:50:49;;;;;;;9.80;5.07;;;14.10;99.90;;;;;;5031735;28;20036;-85
2022/06/10 01:53:28;;;;;;;8.68;5.05;;;14.10;99.90;;;;;;5032495;28;20025;-85
2022/06/10 01:56:09;;;;;;;7.22;5.32;;;14.10;99.90;;;;;;5031948;28;20026;-86
2022/06/10 01:58:53;;;;;;;7.22;5.40;;;14.10;99.90;;;;;;5033236;28;20034;-85
2022/06/10 02:01:41;;;;;;;10.70;6.00;;;14.10;99.90;;;;;;5033549;28;20045;-85
2022/06/10 02:04:32;;;;;;;10.23;5.60;;;14.00;99.90;;;;;;5032122;28;20037;-85
2022/06/10 02:07:18;;;;;;;9.27;5.18;;;14.00;99.90;;;;;;5033642;28;20120;-85
2022/06/10 02:09:52;;;;;;;10.27;5.70;;;14.00;99.90;;;;;;5032604;28;20155;-86
2022/06/10 02:12:27;;;;;;;10.73;5.88;;;14.00;99.90;;;;;;5033391;28;20108;-85
2022/06/10 02:14:58;;;;;;;9.43;6.13;;;14.00;99.90;;;;;;5033233;28;20470;-86
2022/06/10 02:17:28;;;;;;;9.98;5.82;;;14.00;99.90;;;;;;5032953;28;20029;-85
2022/06/10 02:19:57;;;;;;;11.15;6.40;;;14.00;99.90;;;;;;5032615;28;20494;-85
2022/06/10 02:22:39;;;;;;;9.32;6.38;;;14.00;99.90;;;;;;5033236;28;20109;-85
2022/06/10 02:25:11;;;;;;;8.82;5.90;;;14.00;99.90;;;;;;5031108;28;20040;-85
2022/06/10 02:27:40;;;;;;;10.15;6.28;;;14.00;99.90;;;;;;5033007;28;20034;-85
2022/06/10 02:30:11;;;;;;;10.30;6.28;;;14.00;99.90;;;;;;5032313;28;20043;-85
2022/06/10 02:32:39;;;;;;;11.07;6.28;;;14.00;99.90;;;;;;5031535;28;20037;-85
2022/06/10 02:35:08;;;;;;;11.13;7.30;;;13.90;99.90;;;;;;5032502;28;20025;-85
2022/06/10 02:37:39;;;;;;;10.68;6.88;;;13.90;99.90;;;;;;5031203;28;20030;-85
2022/06/10 02:40:29;;;;;;;9.32;6.78;;;13.90;99.90;;;;;;5030377;28;20449;-85
2022/06/10 02:43:11;;;;;;;12.52;6.63;;;13.90;99.90;;;;;;5031553;28;20040;-85
2022/06/10 02:46:01;;;;;;;12.63;8.23;;;14.00;99.90;;;;;;5030928;28;20101;-85
2022/06/10 02:49:11;;;;;;;14.30;7.40;;;13.90;99.90;;;;;;5032716;28;20052;-85
2022/06/10 02:51:38;;;;;;;12.05;7.70;;;13.90;99.90;;;;;;5032375;28;20109;-85
2022/06/10 02:54:10;;;;;;;13.40;7.55;;;13.90;99.90;;;;;;5030251;28;20036;-86
2022/06/10 02:56:36;;;;;;;10.02;7.43;;;13.90;99.90;;;;;;5032384;28;20025;-85
2022/06/10 03:02:07;;;;;;;10.55;7.32;;;13.90;99.90;;;;;;5032153;28;20439;-85
2022/06/10 03:04:39;;;;;;;11.98;7.60;;;13.90;99.90;;;;;;5030816;28;20132;-85
2022/06/10 03:07:11;;;;;;;12.73;7.55;;;13.90;99.90;;;;;;5032124;28;20473;-85
2022/06/10 03:09:56;;;;;;;13.48;7.82;;;13.90;99.90;;;;;;5031693;28;20033;-85
2022/06/10 03:12:29;;;;;;;11.60;7.55;;;13.90;99.90;;;;;;5014265;28;20049;-85
2022/06/10 03:15:15;;;;;;;12.30;8.10;;;13.90;99.90;;;;;;5031710;28;20450;-85
2022/06/10 03:18:18;;;;;;;10.98;6.97;;;13.90;99.90;;;;;;5031964;28;20034;-85
2022/06/10 03:20:52;;;;;;;16.25;8.02;;;13.90;99.90;;;;;;5031380;28;20040;-85
2022/06/10 03:23:25;;;;;;;12.93;7.28;;;13.90;99.90;;;;;;5030540;28;20449;-85
2022/06/10 03:26:06;;;;;;;12.77;7.43;;;13.90;99.90;;;;;;5031534;28;20033;-85
2022/06/10 03:28:48;;;;;;;11.40;7.10;;;13.90;99.90;;;;;;5031635;28;20083;-85
2022/06/10 03:31:23;;;;;;;13.20;8.02;;;13.90;99.90;;;;;;5031581;28;20037;-85
2022/06/10 03:34:04;;;;;;;11.98;8.10;;;13.80;99.90;;;;;;5031519;28;20033;-85
2022/06/10 03:36:33;;;;;;;12.00;7.43;;;13.80;99.90;;;;;;5031417;28;20072;-85
2022/06/10 03:39:01;;;;;;;;;;;13.80;99.90;;;;;;5031129;28;20036;-85
2022/06/10 03:41:37;;;;;;;12.13;8.00;;;13.80;99.90;;;;;;5031600;28;20353;-85
2022/06/10 03:44:15;;;;;;;16.90;8.27;;;13.80;99.90;;;;;;5031374;28;20076;-85
2022/06/10 03:46:46;;;;;;;12.35;7.53;;;13.80;99.90;;;;;;5031332;28;20026;-85
2022/06/10 03:49:15;;;;;;;14.93;7.38;;;13.80;99.90;;;;;;5030999;28;20062;-85
2022/06/10 03:51:41;;;;;;;;;;;13.80;99.90;;;;;;5030677;28;20051;-86
2022/06/10 03:54:07;;;;;;;11.23;7.53;;;13.80;99.90;;;;;;5030619;28;19920;-86
2022/06/10 03:56:35;;;;;;;12.75;7.60;;;13.80;99.90;;;;;;5029700;28;20069;-85
2022/06/10 03:59:02;;;;;;;14.82;7.63;;;13.80;99.90;;;;;;5030808;28;20029;-85
2022/06/10 04:01:28;;;;;;;11.85;7.30;;;13.80;99.90;;;;;;5029918;28;20036;-85
2022/06/10 04:03:54;;;;;;;11.68;6.82;;;13.90;99.90;;;;;;5030994;28;20681;-85
2022/06/10 04:06:20;;;;;;;12.13;7.85;;;13.80;99.90;;;;;;5031051;28;20067;-85
2022/06/10 04:08:46;;;;;;;12.43;7.75;;;13.90;99.90;;;;;;5028854;28;20557;-85
2022/06/10 04:11:12;;;;;;;12.50;7.78;;;13.90;99.90;;;;;;5030749;28;20037;-86
2022/06/10 04:13:37;;;;;;;12.82;7.53;;;13.90;99.90;;;;;;5030848;28;20022;-85
2022/06/10 04:16:03;;;;;;;12.63;7.35;;;13.90;99.90;;;;;;5030880;28;20048;-85
2022/06/10 04:18:29;;;;;;;9.85;6.78;;;14.00;99.90;;;;;;5030768;28;20029;-85
2022/06/10 04:20:55;;;;;;;13.82;8.20;;;14.00;99.90;;;;;;5030853;28;20038;-85
2022/06/10 04:23:20;;;;;;;9.90;6.25;;;14.00;99.90;;;;;;5029592;28;20034;-85
2022/06/10 04:25:46;;;;;;;11.93;7.60;;;14.10;99.90;;;;;;5029649;28;20039;-85
2022/06/10 04:28:13;;;;;;;12.25;7.28;;;14.10;99.90;;;;;;5030803;28;20089;-85
2022/06/10 04:30:47;;;;;;;14.25;7.47;;;14.20;99.90;;;;;;5030212;28;20029;-85
2022/06/10 04:33:13;;;;;;;11.73;6.60;;;14.20;99.90;;;;;;5030878;28;20049;-85
2022/06/10 04:35:42;;;;;;;12.73;6.65;;;14.30;99.90;;;;;;5029201;28;20025;-85
2022/06/10 04:38:08;;;;;;;10.13;6.63;;;14.30;99.90;;;;;;5030521;28;20040;-85
2022/06/10 04:40:36;;;;;;;12.80;6.57;;;14.40;99.90;;;;;;5028139;28;20103;-85
2022/06/10 04:43:04;;;;;;;10.80;6.38;;;14.40;99.90;;;;;;5029521;28;20394;-85
2022/06/10 04:45:35;;;;;;;10.02;6.28;;;14.50;99.90;;;;;;5031075;28;20025;-85
2022/06/10 04:48:01;;;;;;;9.32;5.72;;;14.60;99.90;;;;;;5028634;28;20069;-85
2022/06/10 04:50:28;;;;;;;12.20;6.85;;;14.60;99.90;;;;;;5030048;28;20059;-86
2022/06/10 04:52:55;;;;;;;10.02;6.57;;;14.70;99.90;;;;;;5012799;28;20025;-85
2022/06/10 04:55:22;;;;;;;15.77;6.78;;;14.70;99.90;;;;;;5029492;28;20025;-85
2022/06/10 04:57:48;;;;;;;11.80;6.40;;;14.80;99.90;;;;;;5030612;28;20036;-85
2022/06/10 05:00:21;;;;;;;11.35;5.80;;;14.80;99.90;;;;;;5028612;28;20026;-85
2022/06/10 05:02:47;;;;;;;10.55;6.00;;;14.80;99.90;;;;;;5029041;28;20110;-85
2022/06/10 05:05:13;;;;;;;11.27;6.05;;;14.90;99.90;;;;;;5030337;28;20131;-85
2022/06/10 05:07:39;;;;;;;11.93;6.03;;;14.90;99.90;;;;;;5030857;28;20534;-85
2022/06/10 05:10:06;;;;;;;10.40;5.40;;;15.00;99.90;;;;;;5029162;28;20120;-85
2022/06/10 05:12:31;;;;;;;10.00;5.53;;;15.00;99.90;;;;;;5030288;28;20025;-85
2022/06/10 05:14:57;;;;;;;9.00;5.32;;;15.10;99.90;;;;;;5030264;28;20033;-85
2022/06/10 05:17:52;;;;;;;11.80;5.72;;;15.10;99.90;;;;;;5030278;28;20082;-85
2022/06/10 05:20:25;;;;;;;11.48;6.93;;;15.10;99.90;;;;;;5039852;23;20065;-83
2022/06/10 05:22:50;;;;;;;13.70;6.60;;;15.10;99.90;;;;;;5028356;28;20427;-83
2022/06/10 05:25:17;;;;;;;12.45;6.47;;;15.10;99.90;;;;;;5028212;28;20116;-83
2022/06/10 05:27:42;;;;;;;9.95;6.07;;;15.20;99.90;;;;;;5030004;28;20524;-83
2022/06/10 05:30:12;;;;;;;14.05;6.20;;;15.20;99.90;;;;;;5028241;28;20025;-83
2022/06/10 05:32:38;;;;;;;16.27;6.78;;;15.20;99.90;;;;;;5028909;28;20049;-83
2022/06/10 05:35:04;;;;;;;10.88;5.95;;;15.20;99.90;;;;;;5028736;28;20079;-84
2022/06/10 05:37:30;;;;;;;9.70;5.55;;;15.20;99.90;;;;;;5029994;28;20064;-83
2022/06/10 05:40:05;;;;;;;14.98;5.72;;;15.20;99.90;;;;;;5028960;28;20389;-83
2022/06/10 05:42:31;;;;;;;10.82;5.93;;;15.20;99.90;;;;;;5029867;28;20075;-83
2022/06/10 05:44:57;;;;;;;10.63;6.07;;;15.20;99.90;;;;;;5030004;28;20033;-83
2022/06/10 05:47:25;;;;;;;11.75;4.90;;;15.30;99.90;;;;;;5029721;28;20040;-83
2022/06/10 05:49:54;;;;;;;13.00;6.10;;;15.30;99.90;;;;;;5028188;28;20025;-83
2022/06/10 05:52:24;;;;;;;14.43;5.95;;;15.30;99.90;;;;;;5029847;28;20563;-83
2022/06/10 05:54:51;;;;;;;12.98;5.57;;;15.40;99.90;;;;;;5028959;28;20402;-83
2022/06/10 05:57:17;;;;;;;8.35;5.60;;;15.40;99.90;;;;;;5028311;28;20422;-83
2022/06/10 05:59:44;;;;;;;13.57;6.35;;;15.40;99.90;;;;;;5030894;28;20025;-85
2022/06/10 06:02:11;;;;;;;11.30;6.30;;;15.40;99.90;;;;;;5033549;28;20393;-83
2022/06/10 06:04:37;;;;;;;11.98;5.70;;;15.40;99.90;;;;;;5033278;28;20037;-84
2022/06/10 06:07:04;;;;;;;12.68;6.05;;;15.40;99.90;;;;;;5015319;28;20030;-86
2022/06/10 06:09:30;;;;;;;14.38;6.18;;;15.50;99.90;;;;;;5031129;28;20037;-85
2022/06/10 06:11:57;;;;;;;13.93;5.63;;;15.50;99.90;;;;;;5031884;28;20034;-85
2022/06/10 06:14:25;;;;;;;13.48;5.80;;;15.50;99.90;;;;;;5031934;28;20030;-85
2022/06/10 06:17:00;;;;;;;12.75;5.95;;;15.50;99.90;;;;;;5015329;28;20029;-85
2022/06/10 06:19:27;;;;;;;14.30;5.57;;;15.50;99.90;;;;;;5031503;28;20119;-85
2022/06/10 06:21:53;;;;;;;18.45;5.68;;;15.60;99.90;;;;;;5031587;28;20038;-85
2022/06/10 06:24:20;;;;;;;12.55;5.93;;;15.60;99.90;;;;;;5031282;28;20518;-85
2022/06/10 06:26:46;;;;;;;14.82;5.95;;;15.60;99.90;;;;;;5031232;28;20489;-85
2022/06/10 06:29:12;;;;;;;12.25;5.25;;;15.70;99.90;;;;;;5031136;28;20120;-85
2022/06/10 06:31:38;;;;;;;14.75;6.88;;;15.70;99.90;;;;;;5032577;28;20034;-85
2022/06/10 06:34:05;;;;;;;12.73;6.75;;;15.70;99.90;;;;;;5031264;28;20026;-85
2022/06/10 06:36:38;;;;;;;15.63;6.85;;;15.80;99.90;;;;;;5031224;28;20022;-85
2022/06/10 06:39:05;;;;;;;11.50;5.97;;;15.80;99.90;;;;;;5031610;28;20040;-85
2022/06/10 06:41:31;;;;;;;13.50;5.45;;;15.80;99.90;;;;;;5031437;28;20038;-85
2022/06/10 06:43:57;;;;;;;12.95;5.70;;;15.90;99.90;;;;;;5032447;28;20025;-85
2022/06/10 06:46:23;;;;;;;10.55;4.75;;;15.90;99.90;;;;;;5033274;28;20033;-85
2022/06/10 06:48:49;;;;;;;11.70;4.55;;;15.90;99.90;;;;;;5030785;28;20029;-85
2022/06/10 06:51:15;;;;;;;14.10;5.10;;;15.90;99.90;;;;;;5032438;28;20083;-85
2022/06/10 06:53:41;;;;;;;16.55;5.35;;;16.00;99.90;;;;;;5031903;28;20037;-86
2022/06/10 06:56:08;;;;;;;15.25;5.28;;;16.00;99.90;;;;;;5030621;28;20033;-86
2022/06/10 06:58:34;;;;;;;17.42;4.68;;;16.00;99.90;;;;;;5031161;28;20037;-86
2022/06/10 07:01:01;;;;;;;7.50;3.85;;;16.10;99.90;;;;;;5030787;28;20040;-86
2022/06/10 07:03:27;;;;;;;15.45;5.18;;;16.10;99.90;;;;;;5032128;28;20436;-86
2022/06/10 07:05:53;;;;;;;12.52;4.65;;;16.10;99.90;;;;;;5030469;28;20037;-87
2022/06/10 07:08:19;;;;;;;10.55;4.15;;;16.20;99.90;;;;;;5031153;28;20091;-86
2022/06/10 07:10:45;;;;;;;8.52;3.70;;;16.20;99.90;;;;;;5029146;28;20429;-87
2022/06/10 07:13:12;;;;;;;13.20;4.38;;;16.20;99.90;;;;;;5032488;28;20028;-86
2022/06/10 07:15:40;;;;;;;17.35;5.53;;;16.20;99.90;;;;;;5031804;28;20029;-86
2022/06/10 07:18:06;;;;;;;18.23;3.95;;;16.30;99.90;;;;;;5030881;28;20026;-87
2022/06/10 07:20:36;;;;;;;8.60;3.40;;;16.30;99.90;;;;;;5031765;28;20063;-86
2022/06/10 07:23:02;;;;;;;14.50;3.80;;;16.30;99.90;;;;;;5032001;28;20120;-87
2022/06/10 07:25:29;;;;;;;11.45;3.80;;;16.40;99.90;;;;;;5029903;28;20172;-87
2022/06/10 07:27:56;;;;;;;10.63;3.35;;;16.40;99.90;;;;;;5030297;28;20111;-87
2022/06/10 07:30:25;;;;;;;12.15;3.42;;;16.40;99.90;;;;;;5013595;28;20356;-86
2022/06/10 07:32:52;;;;;;;8.95;3.17;;;16.50;99.90;;;;;;5030386;28;20026;-87
2022/06/10 07:35:18;;;;;;;16.60;4.13;;;16.50;99.90;;;;;;5030194;28;20033;-87
2022/06/10 07:37:45;;;;;;;9.45;3.00;;;16.60;99.90;;;;;;5030201;28;20060;-87
2022/06/10 07:43:09;;;;;;;12.98;4.07;;;16.80;99.90;;;;;;5031662;28;20034;-87
2022/06/10 07:45:35;;;;;;;26.75;6.38;;;17.00;99.90;;;;;;5013334;28;20110;-87
2022/06/10 07:48:01;;;;;;;11.57;2.67;;;17.00;99.90;;;;;;5013578;28;20056;-87
2022/06/10 07:50:27;;;;;;;9.68;2.88;;;17.10;99.90;;;;;;5029787;28;20041;-87
2022/06/10 07:52:53;;;;;;;10.38;2.33;;;17.20;99.90;;;;;;5013797;28;20115;-87
2022/06/10 07:55:19;;;;;;;16.92;4.03;;;17.20;99.90;;;;;;5030677;28;20080;-87
2022/06/10 07:57:45;;;;;;;9.45;2.72;;;17.30;99.90;;;;;;5030215;28;20473;-87
2022/06/10 08:00:13;;;;;;;8.43;2.55;;;17.40;99.90;;;;;;5013121;28;20033;-87
2022/06/10 08:02:40;;;;;;;16.33;3.83;;;17.50;99.90;;;;;;5031389;28;20465;-86
2022/06/10 08:05:09;;;;;;;11.73;4.07;;;17.60;99.90;;;;;;5029943;28;20105;-88
2022/06/10 08:07:37;;;;;;;;;;;17.70;99.90;;;;;;5013562;28;20092;-87
2022/06/10 08:10:05;;;;;;;25.63;5.20;;;17.70;99.90;;;;;;5028829;28;19920;-87
2022/06/10 08:12:31;;;;;;;16.98;3.83;;;17.70;99.90;;;;;;5013115;28;20129;-87
2022/06/10 08:14:57;;;;;;;25.35;4.50;;;17.80;99.90;;;;;;5029733;28;20491;-87
2022/06/10 08:17:23;;;;;;;14.80;3.45;;;17.80;99.90;;;;;;5030905;28;20254;-87
2022/06/10 08:19:49;;;;;;;12.32;3.10;;;17.80;99.90;;;;;;5029045;28;20041;-87
2022/06/10 08:22:34;;;;;;;9.75;2.42;;;17.80;99.90;;;;;;5012823;28;20112;-86
2022/06/10 08:25:01;;;;;;;11.80;3.20;;;17.90;99.90;;;;;;5028614;28;20135;-87
2022/06/10 08:27:28;;;;;;;9.20;3.35;;;17.80;99.90;;;;;;5029709;28;20041;-87
2022/06/10 08:29:55;;;;;;;10.07;2.92;;;17.80;99.90;;;;;;5012615;28;20029;-86
2022/06/10 08:32:22;;;;;;;15.23;3.50;;;17.90;99.90;;;;;;5012939;28;20029;-86
2022/06/10 08:34:48;;;;;;;7.53;2.95;;;17.80;99.90;;;;;;5030528;28;20025;-86
2022/06/10 08:37:14;;;;;;;9.93;2.42;;;17.80;99.90;;;;;;5029298;28;20080;-87
2022/06/10 08:39:40;;;;;;;9.32;2.47;;;17.70;99.90;;;;;;5028189;28;20033;-87
2022/06/10 08:42:18;;;;;;;7.05;2.38;;;17.70;99.90;;;;;;5029369;28;20071;-87
2022/06/10 08:44:55;;;;;;;8.18;2.17;;;17.70;99.90;;;;;;5012768;28;20106;-87
2022/06/10 08:47:27;;;;;;;8.40;2.00;;;17.60;99.90;;;;;;5030769;28;20033;-87
2022/06/10 08:50:27;;;;;;;6.35;2.00;;;17.60;99.90;;;;;;5012972;28;20151;-87
2022/06/10 08:53:02;;;;;;;12.27;2.30;;;17.60;99.90;;;;;;5029226;28;20037;-87
2022/06/10 08:55:36;;;;;;;12.20;3.55;;;17.50;99.90;;;;;;5029707;28;20033;-87
2022/06/10 08:58:13;;;;;;;11.15;3.38;;;17.50;99.90;;;;;;5028957;28;20177;-87
2022/06/10 09:00:40;;;;;;;11.27;3.10;;;17.50;99.90;;;;;;5029793;28;20037;-87
2022/06/10 09:03:12;;;;;;;12.27;2.80;;;17.40;99.90;;;;;;5029188;28;20033;-87
2022/06/10 09:05:46;;;;;;;10.27;2.40;;;17.40;99.90;;;;;;5028865;28;20021;-87
2022/06/10 09:08:18;;;;;;;9.77;2.35;;;17.30;99.90;;;;;;5029094;28;20374;-87
2022/06/10 09:10:49;;;;;;;6.38;1.60;;;17.30;99.90;;;;;;5029115;28;20025;-87
2022/06/10 09:13:28;;;;;;;9.25;1.80;;;17.30;99.90;;;;;;5028911;28;20052;-87
2022/06/10 09:16:13;;;;;;;7.15;1.83;;;17.30;99.90;;;;;;5012216;28;20371;-87
2022/06/10 09:19:17;;;;;;;8.15;1.60;;;17.30;99.90;;;;;;5028510;28;20057;-87
2022/06/10 09:22:07;;;;;;;6.72;1.92;;;17.20;99.90;;;;;;5028670;28;20041;-87
2022/06/10 09:24:50;;;;;;;12.55;3.25;;;17.30;99.90;;;;;;5029581;28;20026;-87
2022/06/10 09:27:38;;;;;;;8.57;2.28;;;17.30;99.90;;;;;;5028675;28;20037;-87
2022/06/10 09:30:07;;;;;;;7.75;1.65;;;17.30;99.90;;;;;;5012250;28;20160;-87
2022/06/10 09:32:44;;;;;;;10.30;2.90;;;17.40;99.90;;;;;;5028944;28;20116;-87
2022/06/10 09:35:28;;;;;;;8.68;2.00;;;17.40;99.90;;;;;;5014693;28;20393;-87
2022/06/10 09:38:00;;;;;;;7.72;1.90;;;17.50;99.90;;;;;;5016011;28;20344;-87
2022/06/10 09:40:36;;;;;;;10.13;2.38;;;17.60;99.90;;;;;;5031894;28;20040;-87
2022/06/10 09:43:09;;;;;;;12.95;1.90;;;17.70;99.90;;;;;;5032651;28;20026;-87
2022/06/10 09:46:10;;;;;;;7.95;1.90;;;17.70;99.90;;;;;;5032318;28;20490;-86
2022/06/10 09:49:10;;;;;;;6.07;1.77;;;17.80;99.90;;;;;;5018424;28;20068;-86
2022/06/10 09:51:36;;;;;;;14.48;2.97;;;17.80;99.90;;;;;;5015910;28;20030;-87
2022/06/10 09:54:28;;;;;;;14.30;3.05;;;17.80;99.90;;;;;;5031645;28;20035;-86
2022/06/10 09:57:38;;;;;;;15.63;2.80;;;17.90;99.90;;;;;;5032069;28;20025;-87
2022/06/10 10:00:28;;;;;;;8.13;2.50;;;18.10;99.90;;;;;;5011878;28;20033;-87
2022/06/10 10:03:28;;;;;;;6.55;1.55;;;18.20;99.90;;;;;;5033184;28;20030;-86
2022/06/10 10:06:03;;;;;;;7.70;2.00;;;18.30;99.90;;;;;;5031968;28;20406;-87
2022/06/10 10:08:45;;;;;;;9.20;2.33;;;18.40;99.90;;;;;;5015849;28;20120;-87
2022/06/10 10:11:28;;;;;;;10.85;2.22;;;18.50;99.90;;;;;;5031718;28;20025;-87
2022/06/10 10:13:59;;;;;;;7.03;1.95;;;18.50;99.90;;;;;;5031599;28;20448;-87
2022/06/10 10:16:50;;;;;;;9.55;2.00;;;18.60;99.90;;;;;;5031647;28;20389;-87
2022/06/10 10:19:34;;;;;;;9.27;1.92;;;18.70;99.90;;;;;;5032763;28;20395;-87
2022/06/10 10:22:56;;;;;;;5.22;1.30;;;18.70;99.90;;;;;;5031452;28;20547;-86
2022/06/10 10:25:25;;;;;;;7.57;1.85;;;18.80;99.90;;;;;;5008933;28;20042;-87
2022/06/10 10:27:52;;;;;;;8.32;2.97;;;18.80;99.90;;;;;;5031394;28;20064;-86
2022/06/10 10:30:42;;;;;;;8.77;1.88;;;18.80;99.90;;;;;;5014584;28;20175;-87
2022/06/10 10:33:11;;;;;;;4.88;1.25;;;18.90;99.90;;;;;;5031588;28;20036;-87
2022/06/10 10:35:44;;;;;;;6.95;1.48;;;18.90;99.90;;;;;;5031407;28;20037;-86
2022/06/10 10:38:28;;;;;;;10.70;1.45;;;19.00;99.90;;;;;;5032853;28;20033;-87
2022/06/10 10:40:54;;;;;;;6.28;1.55;;;19.00;99.90;;;;;;5030590;28;20033;-87
2022/06/10 10:43:30;;;;;;;4.95;1.13;;;19.00;99.90;;;;;;5014995;28;20554;-88
2022/06/10 10:45:56;;;;;;;7.07;1.83;;;19.10;99.90;;;;;;5029945;28;20040;-88
2022/06/10 10:48:27;;;;;;;14.82;2.90;;;19.10;99.90;;;;;;5031268;28;20038;-87
2022/06/10 10:51:28;;;;;;;9.15;1.60;;;19.20;99.90;;;;;;5030801;28;20033;-87
2022/06/10 10:53:56;;;;;;;5.47;1.60;;;19.20;99.90;;;;;;5013445;28;20034;-87
2022/06/10 10:56:35;;;;;;;7.85;2.22;;;19.30;99.90;;;;;;5014965;28;20057;-88
2022/06/10 10:59:02;;;;;;;13.73;2.65;;;19.40;99.90;;;;;;5031113;28;20034;-87
2022/06/10 11:01:46;;;;;;;7.22;1.75;;;19.60;99.90;;;;;;5015126;28;20482;-87
2022/06/10 11:04:24;;;;;;;9.25;2.47;;;19.70;99.90;;;;;;5030836;28;20509;-87
2022/06/10 11:06:59;;;;;;;24.58;4.35;;;19.70;99.90;;;;;;5032615;28;20100;-87
2022/06/10 11:09:26;;;;;;;7.68;1.95;;;19.70;99.90;;;;;;5030675;28;20030;-88
2022/06/10 11:11:53;;;;;;;8.10;1.83;;;19.80;99.90;;;;;;5030854;28;20052;-88
2022/06/10 11:14:31;;;;;;;5.55;1.45;;;19.70;99.90;;;;;;5014321;28;20029;-87
2022/06/10 11:17:23;;;;;;;9.90;2.35;;;19.70;99.90;;;;;;5030933;28;20033;-87
2022/06/10 11:19:58;;;;;;;8.38;1.70;;;19.70;99.90;;;;;;5043506;22;20033;-83
2022/06/10 11:22:28;;;;;;;5.78;1.73;;;19.70;99.90;;;;;;5007149;28;20042;-81
2022/06/10 11:25:22;;;;;;;11.48;2.17;;;19.70;99.90;;;;;;5011253;28;20441;-81
2022/06/10 11:27:51;;;;;;;9.27;2.25;;;19.80;99.90;;;;;;5011755;28;20038;-81
2022/06/10 11:30:20;;;;;;;6.40;1.67;;;19.80;99.90;;;;;;5011895;28;20034;-81
2022/06/10 11:32:48;;;;;;;7.88;2.08;;;19.80;99.90;;;;;;5011778;28;20029;-81
2022/06/10 11:35:34;;;;;;;7.70;1.88;;;20.00;99.90;;;;;;5011784;28;20020;-81
2022/06/10 11:38:28;;;;;;;13.50;2.60;;;20.00;99.90;;;;;;5011659;28;20033;-81
2022/06/10 11:40:56;;;;;;;10.68;2.63;;;20.10;99.90;;;;;;5008750;28;20081;-81
2022/06/10 11:43:31;;;;;;;8.43;2.05;;;20.20;99.90;;;;;;5010478;28;20034;-81
2022/06/10 11:46:12;;;;;;;6.75;1.45;;;20.20;99.90;;;;;;5011323;28;20029;-81
2022/06/10 11:48:45;;;;;;;7.88;1.90;;;20.30;99.90;;;;;;5011484;28;20034;-81
2022/06/10 11:51:58;;;;;;;5.68;1.45;;;20.40;99.90;;;;;;5011328;28;20038;-81
2022/06/10 11:54:43;;;;;;;13.65;2.90;;;20.50;99.90;;;;;;4949972;29;20278;-81
2022/06/10 12:00:10;;;;;;;9.60;2.00;;;20.50;99.90;;;;;;5000249;28;20041;-81
2022/06/10 12:02:55;;;;;;;8.40;2.05;;;20.50;99.90;;;;;;5011536;28;20038;-81
2022/06/10 12:05:54;;;;;;;6.07;1.60;;;20.60;99.90;;;;;;5011150;28;20069;-81
2022/06/10 12:08:29;;;;;;;7.07;1.70;;;20.60;99.90;;;;;;5011052;28;20478;-81
2022/06/10 12:11:22;;;;;;;6.25;1.70;;;20.80;99.90;;;;;;5008903;28;20037;-81
2022/06/10 12:13:59;;;;;;;5.32;1.90;;;20.80;99.90;;;;;;5011159;28;20101;-81
2022/06/10 12:16:26;;;;;;;9.05;1.98;;;20.80;99.90;;;;;;5010646;28;20025;-82
2022/06/10 12:18:53;;;;;;;5.88;1.65;;;20.90;99.90;;;;;;5010811;28;20231;-82
2022/06/10 12:21:28;;;;;;;7.60;1.85;;;21.00;99.90;;;;;;5010738;28;20113;-82
2022/06/10 12:23:54;;;;;;;9.23;1.73;;;21.00;99.90;;;;;;5010991;28;20034;-81
2022/06/10 12:26:47;;;;;;;5.38;1.45;;;21.00;99.90;;;;;;5009895;28;20037;-81
2022/06/10 12:29:23;;;;;;;8.07;1.77;;;21.00;99.90;;;;;;5010385;28;20038;-81
2022/06/10 12:31:48;;;;;;;9.23;2.38;;;21.00;99.90;;;;;;5010615;28;20033;-81
2022/06/10 12:34:46;;;;;;;8.52;1.83;;;21.00;99.90;;;;;;5010523;28;20037;-81
2022/06/10 12:37:27;;;;;;;8.60;1.80;;;20.90;99.90;;;;;;5009893;28;20039;-82
2022/06/10 12:39:57;;;;;;;8.15;1.80;;;20.90;99.90;;;;;;5009535;28;20435;-82
2022/06/10 12:42:46;;;;;;;9.02;2.35;;;20.90;99.90;;;;;;5010625;28;20026;-82
2022/06/10 12:45:24;;;;;;;5.93;1.95;;;21.00;99.90;;;;;;5010120;28;20385;-82
2022/06/10 12:47:59;;;;;;;8.98;1.75;;;20.90;99.90;;;;;;5010311;28;20042;-82
2022/06/10 12:50:28;;;;;;;4.72;1.67;;;21.00;99.90;;;;;;5010048;28;20076;-82
2022/06/10 12:53:09;;;;;;;7.40;1.83;;;20.90;99.90;;;;;;5010425;28;20025;-82
2022/06/10 12:55:45;;;;;;;9.13;1.95;;;20.90;99.90;;;;;;5008406;28;20449;-82
2022/06/10 12:58:38;;;;;;;8.93;2.00;;;20.90;99.90;;;;;;5010475;28;20080;-82
2022/06/10 13:01:16;;;;;;;5.50;1.70;;;20.90;99.90;;;;;;4992536;28;20096;-82
2022/06/10 13:03:42;;;;;;;6.88;2.00;;;20.80;99.90;;;;;;5010686;28;20291;-82
2022/06/10 13:06:30;;;;;;;6.57;1.98;;;20.90;99.90;;;;;;5008761;28;20034;-82
2022/06/10 13:09:11;;;;;;;10.27;1.98;;;20.90;99.90;;;;;;5012015;28;20466;-82
2022/06/10 13:11:46;;;;;;;7.90;1.50;;;21.00;99.90;;;;;;5016778;28;20029;-82
2022/06/10 13:14:18;;;;;;;7.97;2.22;;;21.00;99.90;;;;;;5016757;28;20030;-82
2022/06/10 13:16:49;;;;;;;6.40;1.85;;;21.00;99.90;;;;;;5016787;28;20022;-82
2022/06/10 13:19:36;;;;;;;5.88;1.90;;;20.90;99.90;;;;;;5016556;28;20037;-82
2022/06/10 13:22:17;;;;;;;6.55;1.58;;;20.90;99.90;;;;;;5016633;28;20083;-82
2022/06/10 13:24:53;;;;;;;8.70;1.63;;;21.00;99.90;;;;;;5016190;28;20373;-82
2022/06/10 13:27:46;;;;;;;5.20;1.73;;;21.00;99.90;;;;;;5016540;28;20042;-82